createdAt,value
2018-06-28T00:01:41.119Z,18.50
2018-06-28T00:04:08.642Z,18.50
2018-06-28T00:06:36.188Z,18.50
2018-06-28T00:09:04.506Z,18.40
2018-06-28T00:11:32.033Z,18.40
2018-06-28T00:14:00.352Z,18.30
2018-06-28T00:16:27.875Z,18.30
2018-06-28T00:18:55.952Z,18.30
2018-06-28T00:21:23.515Z,18.20
2018-06-28T00:23:51.071Z,18.20
2018-06-28T00:26:18.596Z,18.20
2018-06-28T00:28:46.885Z,18.20
2018-06-28T00:31:14.467Z,18.20
2018-06-28T00:33:42.756Z,18.10
2018-06-28T00:36:10.361Z,18.10
2018-06-28T00:38:37.945Z,18.10
2018-06-28T00:41:05.464Z,18.10
2018-06-28T00:43:32.981Z,18.10
2018-06-28T00:46:00.543Z,18.10
2018-06-28T00:48:28.063Z,18.10
2018-06-28T00:50:57.401Z,18.00
2018-06-28T00:53:24.948Z,18.00
2018-06-28T00:55:53.239Z,17.90
2018-06-28T00:58:20.816Z,17.90
2018-06-28T01:00:49.344Z,17.90
2018-06-28T01:03:16.878Z,17.80
2018-06-28T01:05:44.430Z,17.60
2018-06-28T01:08:11.949Z,17.60
2018-06-28T01:10:39.513Z,17.50
2018-06-28T01:13:07.064Z,17.50
2018-06-28T01:15:34.591Z,17.50
2018-06-28T01:18:02.144Z,17.50
2018-06-28T01:20:29.656Z,17.50
2018-06-28T01:22:57.205Z,17.40
2018-06-28T01:25:24.729Z,17.40
2018-06-28T01:27:52.244Z,17.30
2018-06-28T01:30:19.827Z,17.20
2018-06-28T01:32:47.361Z,17.10
2018-06-28T01:35:16.860Z,17.00
2018-06-28T01:37:44.404Z,17.00
2018-06-28T01:40:11.925Z,16.90
2018-06-28T01:42:51.311Z,16.80
2018-06-28T01:45:18.828Z,16.80
2018-06-28T01:47:46.353Z,16.70
2018-06-28T01:50:13.910Z,16.60
2018-06-28T01:52:41.429Z,16.60
2018-06-28T01:55:09.740Z,16.60
2018-06-28T01:57:38.026Z,16.50
2018-06-28T02:00:05.541Z,16.50
2018-06-28T02:02:33.852Z,16.40
2018-06-28T02:05:01.387Z,16.30
2018-06-28T02:07:28.932Z,16.40
2018-06-28T02:09:57.403Z,16.40
2018-06-28T02:12:25.715Z,16.30
2018-06-28T02:14:53.262Z,16.30
2018-06-28T02:17:20.785Z,16.30
2018-06-28T02:19:49.075Z,16.20
2018-06-28T02:22:17.385Z,16.30
2018-06-28T02:27:19.347Z,16.30
2018-06-28T02:29:46.868Z,16.30
2018-06-28T02:32:14.415Z,16.10
2018-06-28T02:34:41.957Z,16.20
2018-06-28T02:37:09.477Z,16.20
2018-06-28T02:39:38.033Z,16.30
2018-06-28T02:42:05.592Z,16.30
2018-06-28T02:44:33.137Z,16.20
2018-06-28T02:47:00.701Z,16.20
2018-06-28T02:49:28.262Z,16.20
2018-06-28T02:51:55.797Z,16.10
2018-06-28T02:54:23.349Z,16.10
2018-06-28T02:56:50.894Z,16.20
2018-06-28T02:59:18.420Z,16.20
2018-06-28T03:01:46.734Z,16.10
2018-06-28T03:04:14.256Z,16.10
2018-06-28T03:06:41.800Z,16.10
2018-06-28T03:09:09.343Z,16.10
2018-06-28T03:11:37.177Z,16.00
2018-06-28T03:14:04.727Z,16.10
2018-06-28T03:16:32.253Z,16.00
2018-06-28T03:19:00.550Z,16.10
2018-06-28T03:21:28.110Z,16.10
2018-06-28T03:23:55.634Z,16.10
2018-06-28T03:26:23.199Z,16.20
2018-06-28T03:28:50.716Z,16.20
2018-06-28T03:31:19.185Z,16.20
2018-06-28T03:33:46.744Z,16.20
2018-06-28T03:36:14.264Z,16.20
2018-06-28T03:38:41.789Z,16.20
2018-06-28T03:41:09.351Z,16.10
2018-06-28T03:43:36.864Z,16.20
2018-06-28T03:46:04.420Z,16.20
2018-06-28T03:48:31.973Z,16.20
2018-06-28T03:50:59.494Z,16.30
2018-06-28T03:53:27.032Z,16.30
2018-06-28T03:55:54.554Z,16.30
2018-06-28T03:58:22.080Z,16.30
2018-06-28T04:00:50.388Z,16.30
2018-06-28T04:03:18.863Z,16.30
2018-06-28T04:05:46.412Z,16.30
2018-06-28T04:08:14.887Z,16.30
2018-06-28T04:10:42.441Z,16.30
2018-06-28T04:13:09.992Z,16.30
2018-06-28T04:15:37.523Z,16.30
2018-06-28T04:18:05.043Z,16.40
2018-06-28T04:20:32.596Z,16.30
2018-06-28T04:23:00.887Z,16.50
2018-06-28T04:25:28.437Z,16.50
2018-06-28T04:27:55.978Z,16.50
2018-06-28T04:30:25.890Z,16.40
2018-06-28T04:32:53.429Z,16.40
2018-06-28T04:35:20.961Z,16.40
2018-06-28T04:37:48.508Z,16.50
2018-06-28T04:40:16.037Z,16.60
2018-06-28T04:42:43.589Z,16.60
2018-06-28T04:45:11.150Z,16.70
2018-06-28T04:47:38.834Z,16.70
2018-06-28T04:50:07.025Z,16.80
2018-06-28T04:52:34.577Z,16.90
2018-06-28T04:55:03.059Z,16.90
2018-06-28T04:57:30.577Z,17.00
2018-06-28T04:59:58.145Z,17.00
2018-06-28T05:02:25.700Z,17.10
2018-06-28T05:04:53.265Z,17.20
2018-06-28T05:07:20.789Z,17.20
2018-06-28T05:09:48.313Z,17.20
2018-06-28T05:12:15.858Z,17.20
2018-06-28T05:14:43.393Z,17.30
2018-06-28T05:17:11.930Z,17.40
2018-06-28T05:19:41.428Z,17.50
2018-06-28T05:22:08.958Z,17.50
2018-06-28T05:24:36.513Z,17.50
2018-06-28T05:27:04.129Z,17.60
2018-06-28T05:29:31.670Z,17.70
2018-06-28T05:31:59.220Z,17.80
2018-06-28T05:34:26.744Z,18.00
2018-06-28T05:36:55.328Z,18.10
2018-06-28T05:39:22.856Z,18.10
2018-06-28T05:41:50.417Z,18.20
2018-06-28T05:44:18.724Z,18.20
2018-06-28T05:46:46.276Z,18.20
2018-06-28T05:49:13.815Z,18.30
2018-06-28T05:51:41.430Z,18.40
2018-06-28T05:54:09.997Z,18.40
2018-06-28T05:56:37.507Z,18.50
2018-06-28T05:59:05.066Z,18.60
2018-06-28T06:01:33.402Z,18.50
2018-06-28T06:04:00.966Z,18.40
2018-06-28T06:06:29.436Z,18.40
2018-06-28T06:08:56.964Z,18.30
2018-06-28T06:11:25.280Z,18.40
2018-06-28T06:13:52.809Z,18.40
2018-06-28T06:16:20.366Z,18.60
2018-06-28T06:18:48.657Z,18.90
2018-06-28T06:21:16.205Z,18.90
2018-06-28T06:23:43.753Z,19.00
2018-06-28T06:26:11.277Z,19.10
2018-06-28T06:28:38.821Z,19.20
2018-06-28T06:31:06.381Z,19.20
2018-06-28T06:33:33.933Z,19.30
2018-06-28T06:36:01.469Z,19.30
2018-06-28T06:41:15.454Z,19.40
2018-06-28T06:43:45.003Z,19.50
2018-06-28T06:46:12.597Z,19.30
2018-06-28T06:48:41.335Z,19.30
2018-06-28T06:51:09.873Z,19.40
2018-06-28T06:53:37.978Z,19.50
2018-06-28T06:56:05.566Z,19.60
2018-06-28T06:58:33.493Z,19.70
2018-06-28T07:01:01.435Z,20.00
2018-06-28T07:03:31.285Z,20.00
2018-06-28T07:05:59.380Z,20.20
2018-06-28T07:08:28.402Z,20.60
2018-06-28T07:10:56.167Z,20.60
2018-06-28T07:13:24.448Z,20.60
2018-06-28T07:15:52.841Z,20.60
2018-06-28T07:18:20.766Z,20.60
2018-06-28T07:20:48.866Z,20.70
2018-06-28T07:23:17.139Z,20.70
2018-06-28T07:25:44.951Z,20.70
2018-06-28T07:28:14.501Z,21.00
2018-06-28T07:30:42.193Z,21.20
2018-06-28T07:33:09.768Z,21.20
2018-06-28T07:35:37.301Z,21.30
2018-06-28T07:38:04.820Z,21.50
2018-06-28T07:40:32.368Z,21.60
2018-06-28T07:43:00.871Z,21.60
2018-06-28T07:45:28.549Z,21.70
2018-06-28T07:47:55.985Z,21.70
2018-06-28T07:50:23.504Z,21.90
2018-06-28T07:52:51.020Z,21.90
2018-06-28T07:55:19.393Z,21.80
2018-06-28T07:57:48.088Z,21.80
2018-06-28T08:00:17.141Z,21.80
2018-06-28T08:02:44.793Z,21.80
2018-06-28T08:05:12.303Z,21.90
2018-06-28T08:07:39.848Z,21.80
2018-06-28T08:10:08.470Z,21.90
2018-06-28T08:12:35.992Z,21.90
2018-06-28T08:15:04.318Z,21.80
2018-06-28T08:17:31.881Z,21.70
2018-06-28T08:19:59.439Z,21.90
2018-06-28T08:22:26.984Z,22.10
2018-06-28T08:24:54.504Z,22.00
2018-06-28T08:27:22.818Z,22.30
2018-06-28T08:29:50.461Z,22.30
2018-06-28T08:32:18.027Z,22.30
2018-06-28T08:34:45.601Z,22.40
2018-06-28T08:37:14.980Z,22.20
2018-06-28T08:39:45.762Z,22.30
2018-06-28T08:42:14.747Z,22.40
2018-06-28T08:44:43.415Z,22.80
2018-06-28T08:47:11.056Z,22.70
2018-06-28T08:49:40.568Z,22.80
2018-06-28T08:52:08.113Z,23.10
2018-06-28T08:54:35.687Z,23.40
2018-06-28T08:57:04.280Z,23.50
2018-06-28T08:59:31.906Z,23.50
2018-06-28T09:02:00.422Z,23.00
2018-06-28T09:04:27.956Z,23.00
2018-06-28T09:06:55.509Z,22.80
2018-06-28T09:09:23.789Z,22.90
2018-06-28T09:11:52.115Z,23.10
2018-06-28T09:14:19.648Z,23.10
2018-06-28T09:16:47.173Z,23.20
2018-06-28T09:19:15.492Z,23.00
2018-06-28T09:21:43.036Z,23.00
2018-06-28T09:24:10.584Z,23.00
2018-06-28T09:26:39.052Z,23.00
2018-06-28T09:29:06.596Z,22.90
2018-06-28T09:31:34.112Z,23.00
2018-06-28T09:34:01.651Z,23.10
2018-06-28T09:36:29.209Z,23.10
2018-06-28T09:38:56.740Z,23.40
2018-06-28T09:41:25.056Z,22.90
2018-06-28T09:43:52.575Z,22.80
2018-06-28T09:46:21.856Z,22.20
2018-06-28T09:48:49.622Z,22.20
2018-06-28T09:51:17.169Z,22.30
2018-06-28T09:53:44.717Z,22.30
2018-06-28T09:56:12.237Z,22.20
2018-06-28T09:58:39.783Z,22.50
2018-06-28T10:01:09.293Z,22.70
2018-06-28T10:03:36.804Z,22.70
2018-06-28T10:06:05.373Z,22.70
2018-06-28T10:08:32.904Z,22.80
2018-06-28T10:11:00.459Z,23.10
2018-06-28T10:13:27.982Z,23.70
2018-06-28T10:15:55.504Z,23.80
2018-06-28T10:18:23.064Z,23.80
2018-06-28T10:20:50.616Z,23.70
2018-06-28T10:23:18.171Z,23.60
2018-06-28T10:25:45.692Z,23.10
2018-06-28T10:28:13.243Z,23.40
2018-06-28T10:30:40.781Z,23.00
2018-06-28T10:33:08.331Z,23.20
2018-06-28T10:35:36.836Z,23.50
2018-06-28T10:38:05.173Z,24.10
2018-06-28T10:40:32.702Z,24.10
2018-06-28T10:43:01.003Z,24.10
2018-06-28T10:45:29.476Z,24.10
2018-06-28T10:47:57.017Z,23.80
2018-06-28T10:50:24.598Z,23.70
2018-06-28T10:52:52.157Z,23.90
2018-06-28T10:55:20.630Z,23.90
2018-06-28T10:57:49.112Z,23.80
2018-06-28T11:00:16.662Z,23.60
2018-06-28T11:02:44.190Z,23.80
2018-06-28T11:05:11.748Z,24.10
2018-06-28T11:07:40.238Z,23.90
2018-06-28T11:10:08.560Z,23.90
2018-06-28T11:12:36.076Z,23.90
2018-06-28T11:15:04.369Z,24.60
2018-06-28T11:17:33.883Z,24.60
2018-06-28T11:20:01.416Z,24.80
2018-06-28T11:22:29.729Z,24.60
2018-06-28T11:24:57.252Z,24.60
2018-06-28T11:27:25.536Z,24.10
2018-06-28T11:29:53.188Z,24.10
2018-06-28T11:32:23.456Z,24.70
2018-06-28T11:34:51.003Z,24.70
2018-06-28T11:37:18.645Z,24.70
2018-06-28T11:39:46.201Z,25.00
2018-06-28T11:42:13.730Z,24.70
2018-06-28T11:44:43.001Z,25.50
2018-06-28T11:47:11.571Z,25.50
2018-06-28T11:49:39.971Z,25.50
2018-06-28T11:52:08.388Z,24.90
2018-06-28T11:54:36.165Z,24.90
2018-06-28T11:57:03.700Z,24.60
2018-06-28T11:59:31.251Z,24.40
2018-06-28T12:01:58.767Z,24.10
2018-06-28T12:04:26.318Z,23.80
2018-06-28T12:06:53.843Z,23.70
2018-06-28T12:09:21.379Z,23.60
2018-06-28T12:11:49.190Z,23.70
2018-06-28T12:14:16.755Z,23.70
2018-06-28T12:16:44.316Z,23.90
2018-06-28T12:19:11.832Z,24.30
2018-06-28T12:21:40.355Z,24.70
2018-06-28T12:24:08.022Z,25.20
2018-06-28T12:26:35.560Z,24.90
2018-06-28T12:29:03.868Z,24.00
2018-06-28T12:31:31.391Z,24.00
2018-06-28T12:33:59.707Z,23.10
2018-06-28T12:36:27.258Z,23.10
2018-06-28T12:38:54.800Z,23.00
2018-06-28T12:41:23.312Z,22.60
2018-06-28T12:43:50.856Z,22.60
2018-06-28T12:46:18.485Z,22.50
2018-06-28T12:48:45.994Z,22.50
2018-06-28T12:51:13.513Z,22.40
2018-06-28T12:53:41.032Z,22.30
2018-06-28T12:56:13.460Z,22.20
2018-06-28T12:58:41.940Z,22.40
2018-06-28T13:01:09.694Z,22.70
2018-06-28T13:03:37.212Z,23.10
2018-06-28T13:06:04.744Z,23.30
2018-06-28T13:08:34.241Z,23.20
2018-06-28T13:11:04.070Z,23.80
2018-06-28T13:13:31.617Z,23.90
2018-06-28T13:15:59.143Z,24.90
2018-06-28T13:18:26.693Z,25.30
2018-06-28T13:20:54.220Z,25.30
2018-06-28T13:23:26.742Z,25.50
2018-06-28T13:25:54.265Z,25.70
2018-06-28T13:28:21.784Z,25.80
2018-06-28T13:30:49.331Z,25.50
2018-06-28T13:33:16.848Z,25.50
2018-06-28T13:35:44.401Z,24.90
2018-06-28T13:38:11.921Z,25.00
2018-06-28T13:40:39.484Z,24.40
2018-06-28T13:43:07.066Z,24.20
2018-06-28T13:45:34.588Z,23.90
2018-06-28T13:48:02.458Z,23.30
2018-06-28T13:50:30.000Z,23.20
2018-06-28T13:52:57.555Z,22.90
2018-06-28T13:55:25.078Z,22.70
2018-06-28T13:57:52.625Z,22.40
2018-06-28T14:00:20.181Z,22.30
2018-06-28T14:02:47.710Z,22.30
2018-06-28T14:05:16.238Z,22.60
2018-06-28T14:07:43.771Z,22.90
2018-06-28T14:10:13.215Z,23.00
2018-06-28T14:12:41.498Z,22.60
2018-06-28T14:15:09.988Z,22.70
2018-06-28T14:17:37.535Z,22.70
2018-06-28T14:20:05.861Z,23.00
2018-06-28T14:22:33.403Z,23.00
2018-06-28T14:25:01.002Z,23.20
2018-06-28T14:27:30.506Z,23.40
2018-06-28T14:29:58.029Z,24.10
2018-06-28T14:32:25.592Z,23.90
2018-06-28T14:34:53.694Z,24.10
2018-06-28T14:37:22.068Z,23.30
2018-06-28T14:39:50.160Z,23.30
2018-06-28T14:42:19.390Z,23.60
2018-06-28T14:44:48.403Z,23.60
2018-06-28T14:47:16.427Z,23.30
2018-06-28T14:49:44.715Z,22.80
2018-06-28T14:52:12.256Z,22.80
2018-06-28T14:54:39.780Z,22.80
2018-06-28T14:57:07.305Z,23.00
2018-06-28T14:59:36.823Z,23.10
2018-06-28T15:02:04.366Z,23.20
2018-06-28T15:04:31.938Z,23.90
2018-06-28T15:06:59.488Z,24.20
2018-06-28T15:09:27.790Z,25.00
2018-06-28T15:11:55.365Z,24.90
2018-06-28T15:14:31.317Z,24.50
2018-06-28T15:16:58.884Z,24.20
2018-06-28T15:19:26.617Z,23.80
2018-06-28T15:21:54.222Z,23.80
2018-06-28T15:24:21.775Z,23.90
2018-06-28T15:26:50.082Z,23.80
2018-06-28T15:29:17.631Z,23.80
2018-06-28T15:31:45.158Z,23.40
2018-06-28T15:34:12.780Z,23.30
2018-06-28T15:36:40.306Z,23.30
2018-06-28T15:39:07.860Z,23.30
2018-06-28T15:41:35.580Z,23.20
2018-06-28T15:44:03.146Z,23.30
2018-06-28T15:46:31.306Z,23.20
2018-06-28T15:48:58.853Z,22.80
2018-06-28T15:51:26.378Z,22.90
2018-06-28T15:53:54.719Z,22.80
2018-06-28T15:56:22.265Z,22.80
2018-06-28T15:58:49.804Z,22.70
2018-06-28T16:01:17.350Z,22.80
2018-06-28T16:03:44.917Z,22.90
2018-06-28T16:06:12.495Z,23.10
2018-06-28T16:08:40.040Z,23.30
2018-06-28T16:11:07.573Z,23.20
2018-06-28T16:13:35.909Z,23.60
2018-06-28T16:16:03.461Z,23.50
2018-06-28T16:18:31.020Z,24.30
2018-06-28T16:20:59.146Z,24.20
2018-06-28T16:23:27.499Z,23.90
2018-06-28T16:25:55.030Z,23.90
2018-06-28T16:28:22.567Z,24.60
2018-06-28T16:30:50.097Z,25.90
2018-06-28T16:33:18.417Z,26.40
2018-06-28T16:35:45.964Z,26.40
2018-06-28T16:38:13.521Z,25.30
2018-06-28T16:40:41.045Z,24.70
2018-06-28T16:43:10.357Z,23.70
2018-06-28T16:45:38.688Z,23.10
2018-06-28T16:48:06.240Z,23.10
2018-06-28T16:50:34.722Z,23.00
2018-06-28T16:53:02.384Z,23.10
2018-06-28T16:55:29.908Z,23.00
2018-06-28T16:57:57.463Z,22.80
2018-06-28T17:00:25.744Z,22.80
2018-06-28T17:02:53.264Z,22.70
2018-06-28T17:05:20.812Z,22.50
2018-06-28T17:07:49.299Z,22.50
2018-06-28T17:10:17.625Z,22.30
2018-06-28T17:12:45.148Z,22.30
2018-06-28T17:15:12.706Z,22.30
2018-06-28T17:17:40.228Z,22.40
2018-06-28T17:20:07.830Z,22.30
2018-06-28T17:22:35.416Z,22.20
2018-06-28T17:25:03.049Z,22.20
2018-06-28T17:27:30.593Z,22.00
2018-06-28T17:30:00.096Z,22.10
2018-06-28T17:32:27.624Z,22.00
2018-06-28T17:34:55.246Z,22.00
2018-06-28T17:37:22.779Z,22.10
2018-06-28T17:39:51.124Z,21.90
2018-06-28T17:42:18.656Z,21.90
2018-06-28T17:44:46.210Z,21.80
2018-06-28T17:47:14.525Z,22.10
2018-06-28T17:49:43.042Z,22.10
2018-06-28T17:52:11.342Z,21.90
2018-06-28T17:54:40.857Z,21.90
2018-06-28T17:57:10.355Z,21.90
2018-06-28T17:59:40.403Z,21.80
2018-06-28T18:02:09.768Z,21.70
2018-06-28T18:04:39.889Z,21.90
2018-06-28T18:07:09.654Z,21.70
2018-06-28T18:09:38.666Z,21.70
2018-06-28T18:12:07.435Z,21.60
2018-06-28T18:14:36.422Z,21.60
2018-06-28T18:17:04.983Z,21.70
2018-06-28T18:19:32.593Z,21.80
2018-06-28T18:22:00.126Z,21.60
2018-06-28T18:24:27.667Z,21.70
2018-06-28T18:26:56.172Z,21.70
2018-06-28T18:29:23.697Z,21.80
2018-06-28T18:31:51.259Z,21.70
2018-06-28T18:34:18.794Z,21.70
2018-06-28T18:36:47.226Z,21.50
2018-06-28T18:39:14.790Z,21.50
2018-06-28T18:41:43.501Z,21.50
2018-06-28T18:44:11.053Z,21.40
2018-06-28T18:46:38.766Z,21.50
2018-06-28T18:49:06.323Z,21.40
2018-06-28T18:51:34.892Z,21.40
2018-06-28T18:54:02.505Z,21.40
2018-06-28T18:56:30.054Z,21.50
2018-06-28T18:58:59.552Z,21.40
2018-06-28T19:01:27.074Z,21.40
2018-06-28T19:03:56.611Z,21.40
2018-06-28T19:06:24.140Z,21.30
2018-06-28T19:08:51.721Z,21.30
2018-06-28T19:11:19.262Z,21.20
2018-06-28T19:13:47.071Z,21.30
2018-06-28T19:16:21.037Z,21.00
2018-06-28T19:18:49.660Z,21.00
2018-06-28T19:21:17.459Z,20.90
2018-06-28T19:23:47.617Z,20.80
2018-06-28T19:26:15.138Z,20.80
2018-06-28T19:28:45.422Z,20.90
2018-06-28T19:40:50.524Z,23.50
2018-06-28T19:43:18.133Z,22.20
2018-06-28T19:45:45.685Z,21.70
2018-06-28T19:48:14.003Z,21.10
2018-06-28T19:53:38.000Z,20.90
2018-06-28T19:56:05.520Z,20.80
2018-06-28T19:58:35.076Z,20.60
2018-06-28T20:01:06.682Z,20.60
2018-06-28T20:03:40.414Z,20.50
2018-06-28T20:06:08.048Z,20.50
2018-06-28T20:08:35.644Z,20.60
2018-06-28T20:11:03.486Z,20.60
2018-06-28T20:13:47.888Z,20.60
2018-06-28T20:19:29.689Z,20.50
2018-06-28T20:21:57.348Z,20.30
2018-06-28T20:24:24.912Z,20.10
2018-06-28T20:26:52.500Z,20.20
2018-06-28T20:29:26.496Z,20.10
2018-06-28T20:34:50.166Z,20.20
2018-06-28T20:37:17.723Z,20.10
2018-06-28T20:39:45.278Z,20.10
2018-06-28T20:42:12.807Z,20.10
2018-06-28T20:44:40.381Z,20.20
2018-06-28T20:47:07.944Z,20.10
2018-06-28T20:49:35.468Z,20.00
2018-06-28T20:52:03.817Z,20.00
2018-06-28T20:54:33.314Z,20.00
2018-06-28T20:57:00.828Z,19.80
2018-06-28T20:59:28.382Z,19.70
2018-06-28T21:01:55.965Z,19.70
2018-06-28T21:04:23.564Z,19.70
2018-06-28T21:06:51.123Z,19.60
2018-06-28T21:09:19.444Z,19.50
2018-06-28T21:11:47.205Z,19.50
2018-06-28T21:14:14.757Z,19.60
2018-06-28T21:16:43.970Z,19.60
2018-06-28T21:19:13.473Z,19.50
2018-06-28T21:21:41.025Z,19.50
2018-06-28T21:24:08.553Z,19.60
2018-06-28T21:26:36.926Z,19.50
2018-06-28T21:29:04.411Z,19.50
2018-06-28T21:31:32.753Z,19.60
2018-06-28T21:34:01.970Z,19.50
2018-06-28T21:36:29.581Z,19.50
2018-06-28T21:38:57.152Z,19.50
2018-06-28T21:41:24.705Z,19.40
2018-06-28T21:43:52.258Z,19.50
2018-06-28T21:46:19.861Z,19.40
2018-06-28T21:48:47.418Z,19.30
2018-06-28T21:51:14.965Z,19.30
2018-06-28T21:53:42.490Z,19.30
2018-06-28T21:56:10.045Z,19.40
2018-06-28T21:58:37.640Z,19.40
2018-06-28T22:01:05.164Z,19.40
2018-06-28T22:03:32.717Z,19.40
2018-06-28T22:06:00.303Z,19.40
2018-06-28T22:08:27.863Z,19.40
2018-06-28T22:10:55.377Z,19.40
2018-06-28T22:13:24.700Z,19.30
2018-06-28T22:15:52.260Z,19.30
2018-06-28T22:18:19.796Z,19.30
2018-06-28T22:20:47.328Z,19.30
2018-06-28T22:23:14.912Z,19.30
2018-06-28T22:25:43.246Z,19.20
2018-06-28T22:28:10.783Z,19.20
2018-06-28T22:30:38.352Z,19.30
2018-06-28T22:33:05.873Z,19.20
2018-06-28T22:35:33.425Z,19.20
2018-06-28T22:38:01.717Z,19.10
2018-06-28T22:40:29.280Z,19.10
2018-06-28T22:42:56.804Z,19.20
2018-06-28T22:45:25.222Z,19.20
2018-06-28T22:47:52.745Z,19.10
2018-06-28T22:50:21.283Z,19.20
2018-06-28T22:52:48.799Z,19.20
2018-06-28T22:55:16.328Z,19.30
2018-06-28T22:57:45.632Z,19.20
2018-06-28T23:00:13.156Z,19.20
2018-06-28T23:02:40.709Z,19.10
2018-06-28T23:05:08.249Z,19.10
2018-06-28T23:07:35.791Z,19.20
2018-06-28T23:10:03.324Z,19.20
2018-06-28T23:12:31.633Z,19.10
2018-06-28T23:14:59.207Z,19.00
2018-06-28T23:17:26.758Z,19.10
2018-06-28T23:19:54.280Z,19.00
2018-06-28T23:22:21.856Z,19.00
2018-06-28T23:24:49.367Z,19.00
2018-06-28T23:27:16.917Z,19.00
2018-06-28T23:29:44.464Z,18.90
2018-06-28T23:32:11.984Z,18.90
2018-06-28T23:34:47.813Z,18.70
2018-06-28T23:37:15.365Z,18.70
2018-06-28T23:39:42.984Z,18.60
2018-06-28T23:42:10.558Z,18.60
2018-06-28T23:44:38.084Z,18.50
2018-06-28T23:47:05.650Z,18.60
2018-06-28T23:49:33.176Z,18.70
2018-06-28T23:52:00.729Z,18.70
2018-06-28T23:54:28.252Z,18.70
2018-06-28T23:56:55.808Z,18.80
2018-06-28T23:59:23.336Z,18.70
